createdAt,value
2019-03-26T00:01:47.135Z,4.00
2019-03-26T00:04:17.974Z,2.83
2019-03-26T00:06:49.395Z,3.07
2019-03-26T00:09:19.952Z,3.30
2019-03-26T00:11:49.395Z,2.90
2019-03-26T00:14:20.030Z,2.67
2019-03-26T00:16:50.902Z,2.93
2019-03-26T00:19:29.613Z,2.97
2019-03-26T00:21:59.088Z,3.23
2019-03-26T00:24:28.968Z,2.87
2019-03-26T00:26:58.861Z,3.30
2019-03-26T00:29:28.691Z,3.60
2019-03-26T00:31:58.296Z,3.37
2019-03-26T00:34:27.878Z,3.90
2019-03-26T00:36:58.031Z,3.23
2019-03-26T00:39:28.888Z,3.53
2019-03-26T00:42:00.178Z,3.03
2019-03-26T00:44:30.551Z,3.70
2019-03-26T00:47:00.314Z,3.77
2019-03-26T00:49:32.936Z,3.50
2019-03-26T00:52:02.738Z,4.03
2019-03-26T00:54:32.206Z,5.40
2019-03-26T00:57:02.658Z,4.40
2019-03-26T00:59:32.809Z,4.43
2019-03-26T01:02:02.564Z,4.50
2019-03-26T01:04:33.568Z,3.53
2019-03-26T01:07:03.749Z,3.20
2019-03-26T01:09:33.302Z,3.60
2019-03-26T01:12:03.195Z,3.40
2019-03-26T01:14:33.351Z,2.80
2019-03-26T01:17:04.177Z,3.07
2019-03-26T01:19:34.840Z,2.57
2019-03-26T01:22:04.409Z,3.00
2019-03-26T01:24:34.816Z,3.63
2019-03-26T01:27:04.282Z,2.87
2019-03-26T01:29:34.354Z,3.30
2019-03-26T01:32:04.105Z,2.53
2019-03-26T01:34:45.496Z,3.10
2019-03-26T01:37:06.694Z,3.40
2019-03-26T01:39:36.761Z,3.10
2019-03-26T01:42:06.800Z,3.73
2019-03-26T01:44:36.508Z,3.40
2019-03-26T01:47:05.957Z,3.37
2019-03-26T01:49:36.343Z,3.03
2019-03-26T01:52:09.931Z,2.70
2019-03-26T01:54:39.563Z,2.97
2019-03-26T01:57:12.031Z,3.33
2019-03-26T01:59:41.938Z,3.10
2019-03-26T02:02:12.173Z,3.10
2019-03-26T02:04:43.408Z,4.40
2019-03-26T02:07:13.454Z,3.37
2019-03-26T02:09:43.245Z,3.23
2019-03-26T02:12:14.499Z,3.10
2019-03-26T02:14:44.684Z,3.33
2019-03-26T02:17:14.229Z,3.30
2019-03-26T02:19:44.467Z,3.33
2019-03-26T02:22:14.234Z,3.50
2019-03-26T02:24:44.082Z,2.90
2019-03-26T02:27:17.132Z,3.63
2019-03-26T02:29:49.284Z,3.00
2019-03-26T02:32:19.882Z,4.23
2019-03-26T02:34:49.816Z,3.63
2019-03-26T02:37:19.599Z,2.77
2019-03-26T02:39:49.490Z,2.53
2019-03-26T02:42:19.746Z,3.33
2019-03-26T02:44:49.484Z,3.27
2019-03-26T02:47:19.628Z,2.67
2019-03-26T02:49:49.232Z,2.70
2019-03-26T02:52:19.502Z,2.97
2019-03-26T02:54:49.104Z,4.47
2019-03-26T02:57:20.667Z,4.17
2019-03-26T02:59:50.766Z,3.00
2019-03-26T03:02:20.635Z,3.57
2019-03-26T03:04:51.317Z,3.23
2019-03-26T03:07:21.042Z,3.00
2019-03-26T03:09:50.944Z,3.03
2019-03-26T03:12:21.300Z,3.67
2019-03-26T03:14:52.692Z,2.70
2019-03-26T03:17:22.603Z,2.63
2019-03-26T03:19:53.196Z,3.13
2019-03-26T03:22:23.914Z,2.90
2019-03-26T03:24:53.821Z,3.83
2019-03-26T03:27:26.449Z,2.97
2019-03-26T03:29:57.794Z,3.67
2019-03-26T03:32:32.180Z,3.87
2019-03-26T03:35:02.746Z,3.57
2019-03-26T03:37:32.672Z,2.83
2019-03-26T03:40:02.732Z,3.10
2019-03-26T03:42:32.299Z,3.70
2019-03-26T03:45:01.980Z,3.07
2019-03-26T03:47:34.371Z,2.33
2019-03-26T03:50:04.478Z,3.20
2019-03-26T03:52:46.161Z,3.43
2019-03-26T03:55:16.763Z,3.70
2019-03-26T03:57:52.566Z,2.77
2019-03-26T04:00:36.396Z,3.63
2019-03-26T04:03:09.153Z,3.20
2019-03-26T04:05:41.190Z,2.80
2019-03-26T04:08:11.050Z,3.03
2019-03-26T04:10:40.977Z,2.80
2019-03-26T04:13:11.464Z,3.23
2019-03-26T04:15:42.460Z,2.67
2019-03-26T04:18:15.461Z,2.57
2019-03-26T04:20:45.428Z,3.07
2019-03-26T04:23:17.949Z,2.53
2019-03-26T04:25:50.562Z,3.43
2019-03-26T04:28:20.232Z,2.70
2019-03-26T04:30:50.399Z,3.80
2019-03-26T04:33:21.165Z,3.37
2019-03-26T04:35:53.437Z,3.40
2019-03-26T04:38:24.235Z,2.23
2019-03-26T04:40:54.141Z,2.43
2019-03-26T04:43:25.119Z,2.97
2019-03-26T04:46:07.352Z,2.10
2019-03-26T04:52:21.539Z,2.57
2019-03-26T04:54:51.249Z,2.13
2019-03-26T04:57:21.105Z,2.73
2019-03-26T04:59:51.713Z,2.97
2019-03-26T05:02:22.250Z,2.53
2019-03-26T05:04:51.795Z,2.00
2019-03-26T05:07:24.922Z,1.97
2019-03-26T05:09:55.582Z,1.77
2019-03-26T05:12:25.870Z,1.80
2019-03-26T05:14:55.246Z,2.03
2019-03-26T05:17:24.822Z,1.70
2019-03-26T05:19:54.763Z,2.10
2019-03-26T05:22:24.704Z,1.80
2019-03-26T05:24:54.114Z,1.73
2019-03-26T05:33:41.233Z,1.70
2019-03-26T05:34:28.016Z,1.90
2019-03-26T05:36:58.330Z,2.10
2019-03-26T05:39:27.921Z,1.77
2019-03-26T05:41:57.593Z,2.23
2019-03-26T05:44:27.773Z,2.23
2019-03-26T05:46:58.175Z,1.90
2019-03-26T05:49:28.509Z,1.90
2019-03-26T05:51:58.019Z,1.60
2019-03-26T05:54:30.092Z,2.20
2019-03-26T05:57:00.746Z,1.93
2019-03-26T05:59:30.510Z,1.87
2019-03-26T06:06:10.240Z,1.50
2019-03-26T06:09:20.823Z,2.47
2019-03-26T06:11:51.558Z,2.33
2019-03-26T06:14:21.256Z,2.73
2019-03-26T06:16:57.351Z,1.70
2019-03-26T06:19:27.678Z,2.07
2019-03-26T06:21:56.997Z,2.23
2019-03-26T06:24:27.447Z,2.13
2019-03-26T06:26:58.056Z,2.10
2019-03-26T06:29:28.867Z,2.23
2019-03-26T06:31:58.901Z,1.80
2019-03-26T06:34:28.782Z,2.13
2019-03-26T06:36:59.152Z,2.80
2019-03-26T06:39:31.813Z,1.90
2019-03-26T06:42:01.321Z,1.73
2019-03-26T06:44:30.673Z,2.07
2019-03-26T06:47:00.175Z,2.03
2019-03-26T06:49:29.582Z,1.90
2019-03-26T06:51:59.741Z,2.63
2019-03-26T06:54:29.324Z,2.30
2019-03-26T06:56:59.262Z,2.23
2019-03-26T06:59:29.247Z,2.07
2019-03-26T07:01:58.785Z,2.67
2019-03-26T07:04:29.534Z,1.90
2019-03-26T07:06:59.347Z,2.00
2019-03-26T07:09:29.683Z,2.10
2019-03-26T07:11:59.157Z,2.57
2019-03-26T07:14:28.709Z,2.87
2019-03-26T07:16:59.163Z,2.30
2019-03-26T07:19:29.080Z,2.80
2019-03-26T07:21:59.574Z,2.60
2019-03-26T07:24:30.070Z,2.63
2019-03-26T07:26:59.847Z,2.17
2019-03-26T07:29:29.365Z,2.33
2019-03-26T07:31:59.904Z,2.40
2019-03-26T07:34:29.979Z,2.30
2019-03-26T07:36:59.814Z,2.60
2019-03-26T07:39:30.125Z,2.67
2019-03-26T07:42:03.781Z,2.50
2019-03-26T07:44:36.225Z,2.80
2019-03-26T07:47:06.093Z,2.20
2019-03-26T07:49:35.826Z,3.20
2019-03-26T07:52:06.282Z,2.83
2019-03-26T07:54:36.438Z,2.40
2019-03-26T07:57:05.932Z,2.60
2019-03-26T07:59:35.966Z,2.63
2019-03-26T08:02:06.498Z,2.87
2019-03-26T08:04:36.704Z,3.53
2019-03-26T08:07:06.631Z,2.40
2019-03-26T08:09:36.306Z,2.23
2019-03-26T08:12:06.317Z,2.73
2019-03-26T08:14:36.571Z,2.43
2019-03-26T08:17:06.208Z,2.23
2019-03-26T08:19:36.762Z,2.97
2019-03-26T08:22:06.485Z,2.13
2019-03-26T08:24:36.085Z,2.03
2019-03-26T08:27:08.520Z,2.60
2019-03-26T08:29:38.163Z,2.27
2019-03-26T08:32:08.714Z,2.03
2019-03-26T08:34:38.191Z,2.73
2019-03-26T08:37:08.593Z,2.30
2019-03-26T08:39:39.101Z,1.83
2019-03-26T08:42:09.252Z,2.27
2019-03-26T08:44:41.937Z,2.33
2019-03-26T08:47:11.866Z,2.37
2019-03-26T08:49:42.288Z,1.43
2019-03-26T08:52:12.661Z,1.43
2019-03-26T08:54:42.771Z,1.90
2019-03-26T08:57:13.405Z,1.70
2019-03-26T08:59:43.379Z,1.90
2019-03-26T09:02:14.286Z,1.20
2019-03-26T09:04:44.613Z,1.20
2019-03-26T09:07:14.552Z,1.33
2019-03-26T09:09:46.331Z,1.53
2019-03-26T09:12:16.341Z,1.63
2019-03-26T09:14:48.292Z,1.50
2019-03-26T09:17:19.971Z,1.80
2019-03-26T09:19:50.266Z,2.13
2019-03-26T09:22:21.221Z,1.90
2019-03-26T09:24:52.021Z,1.60
2019-03-26T09:27:22.105Z,1.33
2019-03-26T09:29:52.503Z,1.60
2019-03-26T09:32:22.861Z,1.27
2019-03-26T09:34:52.776Z,1.73
2019-03-26T09:37:22.741Z,1.90
2019-03-26T09:39:53.165Z,1.53
2019-03-26T09:42:22.753Z,1.37
2019-03-26T09:44:52.629Z,1.40
2019-03-26T09:47:22.777Z,1.40
2019-03-26T09:49:52.280Z,1.70
2019-03-26T09:52:22.173Z,1.50
2019-03-26T09:54:51.869Z,4.23
2019-03-26T09:57:21.571Z,1.80
2019-03-26T09:59:51.704Z,1.37
2019-03-26T10:02:21.791Z,1.40
2019-03-26T10:05:00.777Z,1.80
2019-03-26T10:07:30.340Z,1.77
2019-03-26T10:10:00.560Z,1.50
2019-03-26T10:12:30.446Z,1.27
2019-03-26T10:15:00.353Z,1.57
2019-03-26T10:17:30.637Z,1.27
2019-03-26T10:20:02.552Z,1.30
2019-03-26T10:22:32.639Z,1.50
2019-03-26T10:25:04.796Z,1.27
2019-03-26T10:27:35.307Z,1.10
2019-03-26T10:30:05.902Z,1.50
2019-03-26T10:32:37.055Z,1.40
2019-03-26T10:35:07.154Z,1.57
2019-03-26T10:37:37.023Z,1.57
2019-03-26T10:40:09.440Z,1.20
2019-03-26T10:42:39.607Z,1.67
2019-03-26T10:45:09.876Z,1.37
2019-03-26T10:47:39.966Z,1.23
2019-03-26T10:50:10.065Z,1.30
2019-03-26T10:52:44.027Z,1.57
2019-03-26T10:55:14.055Z,1.40
2019-03-26T10:57:44.004Z,1.60
2019-03-26T11:00:14.477Z,1.27
2019-03-26T11:02:44.373Z,1.37
2019-03-26T11:05:15.722Z,1.50
2019-03-26T11:07:46.316Z,1.40
2019-03-26T11:10:16.456Z,1.30
2019-03-26T11:12:46.961Z,1.47
2019-03-26T11:15:16.643Z,1.63
2019-03-26T11:17:48.445Z,1.87
2019-03-26T11:20:19.705Z,1.20
2019-03-26T11:22:49.256Z,1.50
2019-03-26T11:25:19.419Z,1.20
2019-03-26T11:27:51.667Z,1.27
2019-03-26T11:30:21.346Z,1.13
2019-03-26T11:32:51.816Z,1.30
2019-03-26T11:35:21.378Z,1.70
2019-03-26T11:37:52.019Z,1.10
2019-03-26T11:40:24.795Z,1.20
2019-03-26T11:42:57.129Z,1.10
2019-03-26T11:45:27.509Z,1.00
2019-03-26T11:47:57.437Z,1.50
2019-03-26T11:50:27.876Z,1.00
2019-03-26T11:52:58.948Z,0.90
2019-03-26T11:55:28.689Z,1.00
2019-03-26T11:57:58.980Z,1.00
2019-03-26T12:00:31.998Z,0.87
2019-03-26T12:03:01.596Z,0.90
2019-03-26T12:05:31.456Z,0.60
2019-03-26T12:08:02.036Z,1.03
2019-03-26T12:10:32.447Z,0.97
2019-03-26T12:13:02.638Z,0.90
2019-03-26T12:15:35.463Z,0.80
2019-03-26T12:18:05.177Z,0.70
2019-03-26T12:20:36.980Z,1.00
2019-03-26T12:23:06.867Z,0.87
2019-03-26T12:25:37.127Z,1.57
2019-03-26T12:28:06.720Z,1.10
2019-03-26T12:30:39.073Z,1.13
2019-03-26T12:33:09.549Z,0.93
2019-03-26T12:35:39.690Z,1.27
2019-03-26T12:38:23.450Z,1.00
2019-03-26T12:40:54.391Z,1.10
2019-03-26T12:43:24.232Z,0.80
2019-03-26T12:45:54.087Z,0.90
2019-03-26T12:48:23.760Z,1.23
2019-03-26T12:50:53.608Z,1.27
2019-03-26T12:53:23.538Z,1.27
2019-03-26T12:55:53.602Z,1.57
2019-03-26T12:58:31.637Z,1.30
2019-03-26T13:00:55.212Z,1.30
2019-03-26T13:03:24.698Z,1.37
2019-03-26T13:05:55.717Z,1.30
2019-03-26T13:08:28.783Z,1.90
2019-03-26T13:10:58.505Z,1.37
2019-03-26T13:13:39.321Z,1.50
2019-03-26T13:16:11.534Z,1.37
2019-03-26T13:18:41.174Z,1.30
2019-03-26T13:21:19.833Z,1.40
2019-03-26T13:23:49.894Z,1.53
2019-03-26T13:26:19.835Z,1.40
2019-03-26T13:28:50.599Z,1.60
2019-03-26T13:31:20.233Z,1.27
2019-03-26T13:33:52.168Z,1.60
2019-03-26T13:36:22.813Z,1.57
2019-03-26T13:49:41.744Z,1.40
2019-03-26T13:52:11.615Z,1.23
2019-03-26T13:54:41.303Z,1.03
2019-03-26T13:57:11.189Z,1.00
2019-03-26T13:59:41.382Z,1.40
2019-03-26T14:02:11.048Z,1.10
2019-03-26T14:04:41.659Z,1.33
2019-03-26T14:07:11.572Z,0.83
2019-03-26T14:09:43.456Z,1.10
2019-03-26T14:12:13.056Z,1.27
2019-03-26T14:14:43.666Z,1.40
2019-03-26T14:17:13.532Z,1.77
2019-03-26T14:19:43.295Z,1.30
2019-03-26T14:22:13.725Z,1.13
2019-03-26T14:24:43.732Z,1.50
2019-03-26T14:27:13.446Z,1.57
2019-03-26T14:29:43.347Z,1.60
2019-03-26T14:32:13.614Z,1.77
2019-03-26T14:34:43.681Z,1.53
2019-03-26T14:37:13.250Z,1.60
2019-03-26T14:39:43.053Z,1.70
2019-03-26T14:42:13.547Z,1.77
2019-03-26T14:44:45.827Z,2.30
2019-03-26T14:47:15.541Z,2.00
2019-03-26T14:49:45.239Z,1.70
2019-03-26T14:52:15.104Z,1.60
2019-03-26T14:54:44.644Z,1.63
2019-03-26T14:57:15.263Z,1.90
2019-03-26T14:59:45.304Z,1.50
2019-03-26T15:02:15.191Z,1.60
2019-03-26T15:04:45.323Z,1.80
2019-03-26T15:07:15.090Z,1.50
2019-03-26T15:09:45.116Z,1.30
2019-03-26T15:12:16.105Z,1.50
2019-03-26T15:14:45.784Z,0.80
2019-03-26T15:17:17.880Z,0.87
2019-03-26T15:19:47.496Z,1.20
2019-03-26T15:22:17.010Z,3.70
2019-03-26T15:24:47.131Z,10.83
2019-03-26T15:27:16.468Z,6.00
2019-03-26T15:29:46.431Z,2.93
2019-03-26T15:32:16.031Z,1.80
2019-03-26T15:34:45.682Z,1.37
2019-03-26T15:37:15.879Z,2.37
2019-03-26T15:39:45.763Z,1.10
2019-03-26T15:42:15.834Z,1.53
2019-03-26T15:44:54.789Z,0.90
2019-03-26T15:47:30.613Z,1.40
2019-03-26T15:50:01.127Z,2.03
2019-03-26T15:52:36.715Z,3.60
2019-03-26T15:55:08.077Z,2.67
2019-03-26T15:57:41.556Z,1.27
2019-03-26T16:00:15.120Z,1.50
2019-03-26T16:02:48.476Z,2.73
2019-03-26T16:05:21.493Z,7.73
2019-03-26T16:07:53.002Z,4.20
2019-03-26T16:10:23.011Z,3.50
2019-03-26T16:12:53.172Z,4.27
2019-03-26T16:15:43.666Z,4.70
2019-03-26T16:18:05.708Z,4.63
2019-03-26T16:20:50.854Z,3.83
2019-03-26T16:23:19.848Z,3.60
2019-03-26T16:25:56.348Z,4.33
2019-03-26T16:28:26.308Z,3.90
2019-03-26T16:31:15.015Z,5.50
2019-03-26T16:33:45.541Z,4.00
2019-03-26T16:36:15.799Z,3.30
2019-03-26T16:38:46.422Z,5.70
2019-03-26T16:41:22.087Z,3.40
2019-03-26T16:43:52.714Z,3.60
2019-03-26T16:46:23.393Z,11.03
2019-03-26T16:48:53.265Z,5.57
2019-03-26T16:51:23.678Z,4.03
2019-03-26T16:53:54.187Z,3.17
2019-03-26T16:56:24.707Z,2.03
2019-03-26T16:58:55.263Z,3.10
2019-03-26T17:01:28.109Z,2.40
2019-03-26T17:04:00.993Z,3.07
2019-03-26T17:06:33.835Z,2.10
2019-03-26T17:09:09.647Z,1.70
2019-03-26T17:11:39.968Z,3.57
2019-03-26T17:14:13.635Z,2.70
2019-03-26T17:16:48.190Z,2.80
2019-03-26T17:19:20.464Z,2.07
2019-03-26T17:21:55.187Z,2.40
2019-03-26T17:24:31.185Z,3.50
2019-03-26T17:27:05.125Z,2.87
2019-03-26T17:29:35.552Z,3.63
2019-03-26T17:32:05.691Z,2.17
2019-03-26T17:34:44.055Z,2.23
2019-03-26T17:41:03.142Z,1.60
2019-03-26T17:43:46.604Z,1.50
2019-03-26T17:46:45.318Z,1.50
2019-03-26T17:49:15.216Z,4.63
2019-03-26T17:51:44.925Z,4.27
2019-03-26T17:54:16.602Z,1.50
2019-03-26T17:56:47.543Z,1.73
2019-03-26T17:59:17.965Z,1.40
2019-03-26T18:01:48.310Z,1.50
2019-03-26T18:04:19.329Z,1.30
2019-03-26T18:06:50.457Z,1.63
2019-03-26T18:09:40.853Z,2.80
2019-03-26T18:15:02.248Z,1.80
2019-03-26T18:17:34.059Z,1.03
2019-03-26T18:20:04.089Z,1.10
2019-03-26T18:22:34.202Z,1.30
2019-03-26T18:25:06.865Z,1.40
2019-03-26T18:27:37.582Z,1.20
2019-03-26T18:30:08.762Z,1.57
2019-03-26T18:32:38.882Z,1.27
2019-03-26T18:35:08.477Z,1.60
2019-03-26T18:37:38.646Z,1.60
2019-03-26T18:40:52.791Z,1.50
2019-03-26T18:43:22.681Z,2.20
2019-03-26T18:45:54.679Z,2.27
2019-03-26T18:48:24.964Z,2.70
2019-03-26T18:50:57.646Z,2.73
2019-03-26T18:53:30.699Z,3.63
2019-03-26T18:56:01.794Z,2.63
2019-03-26T18:58:32.801Z,3.27
2019-03-26T19:01:02.251Z,3.90
2019-03-26T19:03:32.190Z,3.00
2019-03-26T19:06:06.123Z,3.60
2019-03-26T19:08:35.837Z,3.30
2019-03-26T19:11:05.824Z,4.33
2019-03-26T19:13:35.708Z,4.50
2019-03-26T19:16:05.736Z,5.17
2019-03-26T19:18:35.910Z,12.70
2019-03-26T19:21:06.028Z,7.77
2019-03-26T19:23:36.742Z,7.73
2019-03-26T19:26:06.696Z,5.93
2019-03-26T19:28:36.802Z,5.90
2019-03-26T19:31:11.789Z,6.17
2019-03-26T19:33:41.893Z,6.50
2019-03-26T19:36:13.736Z,5.23
2019-03-26T19:38:43.678Z,5.83
2019-03-26T19:41:13.563Z,6.40
2019-03-26T19:43:49.430Z,7.40
2019-03-26T19:46:19.152Z,6.63
2019-03-26T19:48:49.244Z,8.90
2019-03-26T19:51:19.323Z,9.40
2019-03-26T19:53:49.530Z,7.90
2019-03-26T19:56:19.380Z,5.67
2019-03-26T19:58:49.463Z,6.17
2019-03-26T20:01:19.719Z,5.63
2019-03-26T20:03:49.886Z,6.33
2019-03-26T20:06:19.533Z,6.13
2019-03-26T20:08:49.433Z,6.43
2019-03-26T20:11:19.291Z,12.97
2019-03-26T20:13:49.309Z,7.60
2019-03-26T20:16:21.501Z,8.73
2019-03-26T20:18:51.224Z,6.97
2019-03-26T20:21:21.424Z,5.70
2019-03-26T20:23:51.875Z,6.27
2019-03-26T20:26:21.807Z,6.43
2019-03-26T20:28:51.978Z,6.63
2019-03-26T20:31:22.504Z,5.17
2019-03-26T20:33:52.642Z,8.00
2019-03-26T20:36:22.637Z,11.60
2019-03-26T20:38:52.997Z,8.97
2019-03-26T20:41:25.489Z,7.07
2019-03-26T20:43:59.705Z,5.90
2019-03-26T20:46:29.729Z,6.80
2019-03-26T20:48:59.523Z,5.93
2019-03-26T20:51:29.711Z,6.00
2019-03-26T20:53:59.696Z,6.03
2019-03-26T20:56:30.034Z,6.00
2019-03-26T20:59:00.853Z,5.83
2019-03-26T21:01:30.699Z,6.47
2019-03-26T21:04:01.060Z,6.17
2019-03-26T21:06:31.052Z,6.30
2019-03-26T21:09:01.221Z,6.20
2019-03-26T21:11:30.869Z,6.23
2019-03-26T21:14:00.626Z,5.63
2019-03-26T21:16:30.778Z,6.27
2019-03-26T21:19:00.889Z,7.13
2019-03-26T21:21:31.142Z,6.17
2019-03-26T21:24:02.866Z,6.73
2019-03-26T21:26:33.111Z,5.73
2019-03-26T21:29:02.725Z,6.40
2019-03-26T21:31:32.709Z,6.67
2019-03-26T21:34:02.922Z,6.13
2019-03-26T21:36:35.502Z,6.37
2019-03-26T21:39:07.165Z,5.40
2019-03-26T21:41:37.182Z,5.10
2019-03-26T21:44:07.058Z,5.87
2019-03-26T21:46:36.846Z,6.07
2019-03-26T21:49:07.024Z,4.90
2019-03-26T21:51:37.272Z,5.77
2019-03-26T21:54:07.225Z,6.03
2019-03-26T21:56:36.908Z,5.33
2019-03-26T21:59:06.785Z,6.03
2019-03-26T22:01:36.920Z,5.57
2019-03-26T22:04:06.800Z,4.47
2019-03-26T22:06:36.779Z,4.73
2019-03-26T22:09:08.375Z,4.97
2019-03-26T22:11:49.282Z,4.47
2019-03-26T22:14:17.892Z,4.90
2019-03-26T22:16:41.693Z,4.57
2019-03-26T22:19:11.552Z,3.90
2019-03-26T22:21:41.696Z,4.27
2019-03-26T22:24:12.009Z,4.33
2019-03-26T22:26:42.138Z,4.60
2019-03-26T22:29:13.354Z,4.13
2019-03-26T22:31:43.158Z,4.50
2019-03-26T22:34:13.406Z,3.90
2019-03-26T22:36:43.528Z,4.43
2019-03-26T22:39:13.633Z,5.40
2019-03-26T22:41:43.346Z,4.80
2019-03-26T22:44:13.483Z,5.80
2019-03-26T22:46:43.549Z,4.63
2019-03-26T22:49:13.119Z,4.40
2019-03-26T22:51:44.133Z,5.27
2019-03-26T22:54:14.277Z,4.73
2019-03-26T22:56:47.368Z,4.30
2019-03-26T22:59:17.513Z,3.93
2019-03-26T23:01:47.591Z,3.80
2019-03-26T23:04:19.863Z,3.77
2019-03-26T23:06:49.098Z,4.17
2019-03-26T23:09:18.768Z,3.70
2019-03-26T23:11:53.994Z,3.90
2019-03-26T23:14:23.800Z,3.90
2019-03-26T23:16:53.938Z,3.67
2019-03-26T23:19:23.974Z,3.83
2019-03-26T23:21:54.006Z,3.43
2019-03-26T23:24:23.768Z,3.17
2019-03-26T23:26:56.455Z,3.67
2019-03-26T23:29:29.648Z,3.17
2019-03-26T23:32:03.261Z,3.83
2019-03-26T23:34:33.591Z,3.33
2019-03-26T23:37:03.522Z,3.40
2019-03-26T23:39:36.097Z,3.07
2019-03-26T23:42:05.774Z,3.73
2019-03-26T23:44:36.926Z,3.70
2019-03-26T23:47:07.950Z,3.60
2019-03-26T23:49:38.312Z,3.80
2019-03-26T23:52:09.013Z,3.37
2019-03-26T23:54:38.651Z,3.33
2019-03-26T23:57:08.127Z,3.90
2019-03-26T23:59:38.043Z,3.40
